Time;durP1;ratioP1;P1;durP2;ratioP2;P2;SDS_P1;SDS_P2;PMS_P1;PMS_P2;Temp;Humidity;BMP_temperature;BMP_pressure;BME280_temperature;BME280_humidity;BME280_pressure;Samples;Min_cycle;Max_cycle;Signal;HPM_P1;HPM_P2
2023/04/04 00:00:37;;;;;;;10.10;4.30;;;2.90;99.90;;;;;;5041979;28;20229;-77
2023/04/04 00:03:27;;;;;;;6.67;3.40;;;2.90;99.90;;;;;;5038797;28;20223;-75
2023/04/04 00:06:15;;;;;;;8.93;4.07;;;2.70;99.90;;;;;;5041204;28;20600;-77
2023/04/04 00:09:06;;;;;;;6.87;3.80;;;2.80;99.90;;;;;;5040081;28;20311;-77
2023/04/04 00:11:55;;;;;;;9.60;3.70;;;2.50;99.90;;;;;;5042872;28;20584;-78
2023/04/04 00:14:44;;;;;;;8.77;3.83;;;2.50;99.90;;;;;;5041275;28;20260;-78
2023/04/04 00:17:33;;;;;;;7.50;3.50;;;2.70;99.90;;;;;;5036881;28;20667;-74
2023/04/04 00:20:22;;;;;;;5.87;3.53;;;2.60;99.90;;;;;;5035260;28;20265;-72
2023/04/04 00:23:11;;;;;;;7.63;3.70;;;2.50;99.90;;;;;;5016863;28;20239;-73
2023/04/04 00:26:02;;;;;;;7.03;3.60;;;2.60;99.90;;;;;;5028112;28;20225;-73
2023/04/04 00:28:50;;;;;;;10.23;3.87;;;2.70;99.90;;;;;;5017967;28;20271;-73
2023/04/04 00:31:39;;;;;;;8.53;4.20;;;2.50;99.90;;;;;;5028448;28;20231;-73
2023/04/04 00:34:28;;;;;;;8.87;3.90;;;2.60;99.90;;;;;;5038397;28;20232;-74
2023/04/04 00:37:17;;;;;;;7.30;4.30;;;2.50;99.90;;;;;;5033592;28;20228;-74
2023/04/04 00:40:08;;;;;;;8.93;4.07;;;2.50;99.90;;;;;;5026877;28;20597;-75
2023/04/04 00:43:00;;;;;;;5.87;3.37;;;2.50;99.90;;;;;;5037189;28;20236;-74
2023/04/04 00:45:50;;;;;;;9.43;3.80;;;2.30;99.90;;;;;;5023567;28;20216;-75
2023/04/04 00:48:41;;;;;;;7.90;3.67;;;2.40;99.90;;;;;;5023432;28;20239;-74
2023/04/04 00:51:30;;;;;;;6.50;3.87;;;2.30;99.90;;;;;;5033849;28;20648;-80
2023/04/04 00:54:19;;;;;;;8.33;3.73;;;2.40;99.90;;;;;;5032672;28;20783;-79
2023/04/04 00:57:09;;;;;;;8.97;4.17;;;2.30;99.90;;;;;;5037026;28;20216;-76
2023/04/04 01:00:03;;;;;;;6.60;3.77;;;2.30;99.90;;;;;;5050990;28;20884;-78
2023/04/04 01:02:51;;;;;;;6.90;3.33;;;2.30;99.90;;;;;;5030489;28;22401;-76
2023/04/04 01:05:41;;;;;;;6.20;3.30;;;2.50;99.90;;;;;;5037570;28;20304;-77
2023/04/04 01:08:30;;;;;;;7.33;3.73;;;2.60;99.90;;;;;;5036131;28;20244;-77
2023/04/04 01:11:20;;;;;;;7.97;3.57;;;2.50;99.90;;;;;;5030616;28;20234;-77
2023/04/04 01:14:09;;;;;;;8.87;3.50;;;2.20;99.90;;;;;;5020459;28;20225;-77
2023/04/04 01:17:02;;;;;;;9.53;3.53;;;2.10;99.90;;;;;;5021252;28;20244;-77
2023/04/04 01:20:01;;;;;;;10.03;3.40;;;2.30;99.90;;;;;;5030055;28;20229;-75
2023/04/04 01:22:58;;;;;;;6.93;4.17;;;2.40;99.90;;;;;;5034844;28;20230;-75
2023/04/04 01:25:50;;;;;;;7.90;3.40;;;2.00;99.90;;;;;;5035482;28;20226;-74
2023/04/04 01:28:39;;;;;;;9.20;3.40;;;2.20;99.90;;;;;;5017229;28;20222;-74
2023/04/04 01:31:38;;;;;;;9.80;3.93;;;2.20;99.90;;;;;;5017660;28;20221;-74
2023/04/04 01:34:32;;;;;;;9.87;3.90;;;2.20;99.90;;;;;;5024379;28;20247;-74
2023/04/04 01:37:27;;;;;;;10.40;4.30;;;2.00;99.90;;;;;;5034721;28;20744;-74
2023/04/04 01:40:23;;;;;;;7.83;4.07;;;1.90;99.90;;;;;;5028827;28;20231;-72
2023/04/04 01:43:16;;;;;;;11.00;3.80;;;1.80;99.90;;;;;;5005663;28;20233;-73
2023/04/04 01:46:06;;;;;;;11.37;3.83;;;1.90;99.90;;;;;;5029131;28;20225;-74
2023/04/04 01:48:56;;;;;;;6.93;3.43;;;2.10;99.90;;;;;;5032665;28;20225;-73
2023/04/04 01:51:52;;;;;;;8.77;3.70;;;2.30;99.90;;;;;;5040471;28;20243;-72
2023/04/04 01:54:42;;;;;;;5.83;3.60;;;2.10;99.90;;;;;;5017644;28;20223;-72
2023/04/04 01:57:31;;;;;;;9.40;3.67;;;2.30;99.90;;;;;;5010718;28;20773;-72
2023/04/04 02:00:21;;;;;;;8.27;4.20;;;2.40;99.90;;;;;;5018942;28;20247;-73
2023/04/04 02:03:10;;;;;;;8.83;3.63;;;2.20;99.90;;;;;;5041400;28;20227;-73
2023/04/04 02:05:59;;;;;;;9.37;3.43;;;1.90;99.90;;;;;;5035560;28;20241;-73
2023/04/04 02:08:48;;;;;;;11.33;4.00;;;1.90;99.90;;;;;;5006633;28;20726;-74
2023/04/04 02:11:37;;;;;;;9.13;3.53;;;2.00;99.90;;;;;;5021383;28;20261;-74
2023/04/04 02:14:26;;;;;;;5.83;3.50;;;1.90;99.90;;;;;;5037312;28;20319;-75
2023/04/04 02:17:18;;;;;;;6.97;3.90;;;2.00;99.90;;;;;;5014583;28;20228;-75
2023/04/04 02:20:09;;;;;;;7.90;3.43;;;2.10;99.90;;;;;;5002065;28;20221;-76
2023/04/04 02:22:58;;;;;;;6.53;3.20;;;2.10;99.90;;;;;;5038351;28;20248;-76
2023/04/04 02:25:50;;;;;;;8.10;3.63;;;2.00;99.90;;;;;;5036512;28;20852;-76
2023/04/04 02:28:40;;;;;;;10.17;3.60;;;2.00;99.90;;;;;;5016861;28;20255;-77
2023/04/04 02:31:31;;;;;;;7.20;3.60;;;2.10;99.90;;;;;;5040436;28;20280;-77
2023/04/04 02:34:21;;;;;;;9.30;3.67;;;2.00;99.90;;;;;;5035975;28;20991;-77
2023/04/04 02:37:12;;;;;;;6.60;3.07;;;1.70;99.90;;;;;;5016012;28;20219;-77
2023/04/04 02:40:02;;;;;;;5.87;3.87;;;1.70;99.90;;;;;;5019980;28;20598;-77
2023/04/04 02:42:54;;;;;;;7.60;3.30;;;1.60;99.90;;;;;;5008484;28;20219;-76
2023/04/04 02:45:43;;;;;;;8.27;3.13;;;1.70;99.90;;;;;;5024000;28;20232;-75
2023/04/04 02:48:41;;;;;;;9.43;3.77;;;1.90;99.90;;;;;;5042759;28;20232;-75
2023/04/04 02:51:32;;;;;;;8.50;3.60;;;1.80;99.90;;;;;;5023105;28;20227;-75
2023/04/04 02:54:22;;;;;;;9.60;3.50;;;1.80;99.90;;;;;;5020594;28;20239;-75
2023/04/04 02:57:11;;;;;;;8.97;3.37;;;1.90;99.90;;;;;;5003543;28;20749;-79
2023/04/04 03:00:00;;;;;;;5.83;3.17;;;1.70;99.90;;;;;;5016620;28;20222;-78
2023/04/04 03:02:54;;;;;;;10.07;4.10;;;1.70;99.90;;;;;;5014451;28;20234;-78
2023/04/04 03:05:50;;;;;;;9.00;3.40;;;1.80;99.90;;;;;;5018422;28;20223;-78
2023/04/04 03:08:41;;;;;;;13.40;3.20;;;1.80;99.90;;;;;;5002777;28;20230;-76
2023/04/04 03:11:30;;;;;;;7.27;3.60;;;1.70;99.90;;;;;;5035508;28;20237;-75
2023/04/04 03:14:20;;;;;;;6.93;3.07;;;1.70;99.90;;;;;;5049744;28;20218;-75
2023/04/04 03:17:09;;;;;;;7.23;3.40;;;1.60;99.90;;;;;;5020497;28;20289;-76
2023/04/04 03:19:58;;;;;;;9.53;3.57;;;1.80;99.90;;;;;;5013615;28;20309;-76
2023/04/04 03:22:47;;;;;;;8.10;3.20;;;1.90;99.90;;;;;;5012584;28;20255;-77
2023/04/04 03:25:38;;;;;;;9.03;3.77;;;1.90;99.90;;;;;;5004384;28;20565;-78
2023/04/04 03:28:28;;;;;;;9.57;3.33;;;2.10;99.90;;;;;;5007849;28;20227;-78
2023/04/04 03:31:17;;;;;;;6.20;3.17;;;2.10;99.90;;;;;;4994548;28;20240;-77
2023/04/04 03:34:07;;;;;;;10.00;3.83;;;2.00;99.90;;;;;;4994412;28;20236;-77
2023/04/04 03:36:56;;;;;;;9.23;3.60;;;2.00;99.90;;;;;;4997843;28;20235;-77
2023/04/04 03:39:45;;;;;;;8.47;3.87;;;2.10;99.90;;;;;;5013576;28;20333;-77
2023/04/04 03:42:35;;;;;;;7.33;3.40;;;2.20;99.90;;;;;;5003645;28;20561;-78
2023/04/04 03:45:28;;;;;;;5.63;2.97;;;2.00;99.90;;;;;;5020449;28;20253;-74
2023/04/04 03:48:17;;;;;;;8.73;3.57;;;2.00;99.90;;;;;;5009901;28;20220;-75
2023/04/04 03:51:06;;;;;;;9.30;3.70;;;2.10;99.90;;;;;;5013996;28;20319;-73
2023/04/04 03:53:56;;;;;;;11.70;3.83;;;2.10;99.90;;;;;;5015127;28;20235;-73
2023/04/04 03:56:45;;;;;;;6.90;3.13;;;2.10;99.90;;;;;;5013386;28;20246;-73
2023/04/04 03:59:36;;;;;;;7.97;2.90;;;2.20;99.90;;;;;;5027545;28;20231;-74
2023/04/04 04:02:26;;;;;;;8.90;3.13;;;2.10;99.90;;;;;;5020655;28;20220;-73
2023/04/04 04:05:17;;;;;;;10.47;3.90;;;2.10;99.90;;;;;;5010293;28;20231;-74
2023/04/04 04:08:06;;;;;;;12.70;3.77;;;2.20;99.90;;;;;;5031713;28;20655;-72
2023/04/04 04:10:56;;;;;;;12.67;3.20;;;2.00;99.90;;;;;;5006329;28;20273;-73
2023/04/04 04:13:45;;;;;;;6.70;3.10;;;1.80;99.90;;;;;;5015210;28;20239;-72
2023/04/04 04:16:39;;;;;;;9.80;3.47;;;1.90;99.90;;;;;;5016036;28;20355;-73
2023/04/04 04:19:29;;;;;;;9.97;3.67;;;2.10;99.90;;;;;;5019023;28;20226;-74
2023/04/04 04:22:18;;;;;;;11.27;3.50;;;2.10;99.90;;;;;;5036520;28;20305;-74
2023/04/04 04:25:07;;;;;;;8.63;3.40;;;2.20;99.90;;;;;;5036667;28;20264;-75
2023/04/04 04:27:57;;;;;;;8.33;3.50;;;2.20;99.90;;;;;;5039178;28;20319;-75
2023/04/04 04:30:47;;;;;;;7.47;3.30;;;2.20;99.90;;;;;;5024227;28;20230;-74
2023/04/04 04:33:41;;;;;;;10.63;3.50;;;2.20;99.90;;;;;;5034371;28;20237;-78
2023/04/04 04:36:31;;;;;;;10.53;3.23;;;2.30;99.90;;;;;;5025887;28;20239;-76
2023/04/04 04:39:43;;;;;;;8.23;3.70;;;2.20;99.90;;;;;;5040158;28;20225;-76
2023/04/04 04:42:55;;;;;;;11.90;3.73;;;2.20;99.90;;;;;;5028686;28;20222;-77
2023/04/04 04:45:45;;;;;;;11.63;3.80;;;2.20;99.90;;;;;;5024633;28;20261;-76
2023/04/04 04:49:00;;;;;;;8.50;3.87;;;2.30;99.90;;;;;;5023971;28;20235;-76
2023/04/04 04:51:52;;;;;;;11.30;3.40;;;2.30;99.90;;;;;;5034243;28;20458;-76
2023/04/04 04:54:43;;;;;;;8.67;3.93;;;2.20;99.90;;;;;;5023318;28;20241;-76
2023/04/04 04:57:33;;;;;;;8.33;3.47;;;2.40;99.90;;;;;;5031367;28;20234;-74
2023/04/04 05:00:26;;;;;;;8.50;3.80;;;2.40;99.90;;;;;;5006235;28;20234;-72
2023/04/04 05:03:16;;;;;;;9.47;3.83;;;2.40;99.90;;;;;;5015659;28;20792;-71
2023/04/04 05:06:11;;;;;;;8.17;3.80;;;2.30;99.90;;;;;;5040419;28;20279;-72
2023/04/04 05:09:00;;;;;;;9.43;3.90;;;2.50;99.90;;;;;;5041672;28;20225;-73
2023/04/04 05:11:53;;;;;;;7.97;3.80;;;2.60;99.90;;;;;;5029130;28;20233;-72
2023/04/04 05:14:46;;;;;;;10.03;3.60;;;2.80;99.90;;;;;;5019884;28;20241;-73
2023/04/04 05:17:36;;;;;;;9.93;3.80;;;2.60;99.90;;;;;;5035237;28;20721;-73
2023/04/04 05:20:28;;;;;;;8.20;3.43;;;2.80;99.90;;;;;;5038855;28;20227;-73
2023/04/04 05:23:21;;;;;;;7.80;3.63;;;2.80;99.90;;;;;;5022646;28;20577;-73
2023/04/04 05:26:10;;;;;;;9.20;3.90;;;2.70;99.90;;;;;;5040104;28;20332;-75
2023/04/04 05:29:00;;;;;;;9.27;3.80;;;2.60;99.90;;;;;;5037901;28;20236;-75
2023/04/04 05:31:50;;;;;;;7.23;3.43;;;2.80;99.90;;;;;;5016604;28;20235;-75
2023/04/04 05:34:42;;;;;;;7.47;4.07;;;2.80;99.90;;;;;;5045484;28;20365;-74
2023/04/04 05:37:39;;;;;;;8.77;3.93;;;2.60;99.90;;;;;;5019714;28;20730;-74
2023/04/04 05:40:33;;;;;;;11.87;5.50;;;2.80;99.90;;;;;;5018536;28;20271;-75
2023/04/04 05:43:30;;;;;;;7.57;3.90;;;3.00;99.90;;;;;;5019880;28;20736;-73
2023/04/04 05:46:27;;;;;;;10.23;4.53;;;3.10;99.90;;;;;;5024518;28;20224;-72
2023/04/04 05:49:17;;;;;;;8.20;4.67;;;3.20;99.90;;;;;;5018723;28;20238;-75
2023/04/04 05:52:15;;;;;;;9.40;4.40;;;3.20;99.90;;;;;;5025211;28;20574;-74
2023/04/04 05:55:05;;;;;;;10.00;4.53;;;3.30;99.90;;;;;;5043957;28;20226;-72
2023/04/04 05:57:56;;;;;;;13.50;4.30;;;3.40;99.90;;;;;;5039427;28;20226;-73
2023/04/04 06:00:57;;;;;;;11.43;4.20;;;3.20;99.90;;;;;;5050929;28;20740;-74
2023/04/04 06:03:46;;;;;;;11.17;4.30;;;3.50;99.90;;;;;;5045117;28;20232;-76
2023/04/04 06:06:41;;;;;;;9.73;4.30;;;3.40;99.90;;;;;;5024086;28;20339;-73
2023/04/04 06:09:30;;;;;;;10.23;4.10;;;3.50;99.90;;;;;;5009063;28;20235;-73
2023/04/04 06:12:20;;;;;;;12.03;4.20;;;3.60;99.90;;;;;;5015400;28;20260;-76
2023/04/04 06:15:11;;;;;;;8.17;3.90;;;3.20;99.90;;;;;;5027417;28;20581;-80
2023/04/04 06:18:02;;;;;;;8.57;4.33;;;3.10;99.90;;;;;;5019434;28;20315;-72
2023/04/04 06:20:51;;;;;;;11.20;4.47;;;3.20;99.90;;;;;;5034808;28;20256;-76
2023/04/04 06:23:40;;;;;;;9.60;4.40;;;3.90;99.90;;;;;;5022369;28;20226;-77
2023/04/04 06:26:29;;;;;;;9.77;4.63;;;4.00;99.90;;;;;;5018290;28;20223;-76
2023/04/04 06:29:21;;;;;;;15.23;5.00;;;3.60;99.90;;;;;;5035984;28;20240;-77
2023/04/04 06:32:12;;;;;;;16.03;5.53;;;3.70;99.90;;;;;;5023334;28;20281;-76
2023/04/04 06:35:04;;;;;;;10.03;4.57;;;3.60;99.90;;;;;;5036564;28;20223;-77
2023/04/04 06:38:03;;;;;;;10.03;5.13;;;3.90;99.90;;;;;;5029208;28;20708;-77
2023/04/04 06:40:52;;;;;;;7.03;4.50;;;3.90;99.90;;;;;;5006905;28;20221;-75
2023/04/04 06:43:40;;;;;;;9.80;4.93;;;3.90;99.90;;;;;;5019610;28;20233;-74
2023/04/04 06:46:32;;;;;;;11.43;5.13;;;4.20;99.90;;;;;;5017831;28;20972;-74
2023/04/04 06:49:22;;;;;;;10.27;5.30;;;4.30;99.90;;;;;;5011030;28;20686;-73
2023/04/04 06:52:11;;;;;;;11.80;5.23;;;4.40;99.90;;;;;;5028557;28;20234;-73
2023/04/04 06:55:02;;;;;;;11.23;4.90;;;4.30;99.90;;;;;;5024885;28;20232;-71
2023/04/04 06:57:50;;;;;;;18.27;5.47;;;4.30;99.90;;;;;;5052523;28;20813;-75
2023/04/04 07:00:39;;;;;;;10.37;4.77;;;4.30;99.90;;;;;;5041583;28;20229;-76
2023/04/04 07:03:29;;;;;;;10.17;5.33;;;4.50;99.90;;;;;;5033221;28;20221;-76
2023/04/04 07:06:22;;;;;;;10.77;5.13;;;5.00;99.90;;;;;;5022735;28;20299;-69
2023/04/04 07:09:13;;;;;;;9.23;5.10;;;5.10;99.90;;;;;;5025678;28;20220;-78
2023/04/04 07:12:19;;;;;;;14.97;5.37;;;4.40;99.90;;;;;;5028103;28;20287;-77
2023/04/04 07:15:10;;;;;;;9.67;4.90;;;5.00;99.90;;;;;;5037869;28;20228;-75
2023/04/04 07:17:58;;;;;;;10.40;5.40;;;6.20;99.90;;;;;;5038329;28;20569;-75
2023/04/04 07:20:48;;;;;;;13.10;4.87;;;5.90;99.90;;;;;;5035935;28;20229;-75
2023/04/04 07:23:38;;;;;;;11.80;5.43;;;6.00;99.90;;;;;;5038497;28;20228;-75
2023/04/04 07:26:27;;;;;;;8.80;5.00;;;5.10;99.90;;;;;;5039231;28;20220;-77
2023/04/04 07:29:17;;;;;;;9.83;5.13;;;5.70;99.90;;;;;;5027686;28;20268;-76
2023/04/04 07:32:07;;;;;;;10.60;4.90;;;6.00;99.90;;;;;;5020212;28;20237;-76
2023/04/04 07:34:56;;;;;;;12.33;5.20;;;7.10;99.90;;;;;;5022008;28;20799;-77
2023/04/04 07:37:45;;;;;;;11.13;4.70;;;6.70;99.90;;;;;;5018092;28;20234;-78
2023/04/04 07:40:36;;;;;;;7.77;4.57;;;6.90;99.90;;;;;;5021208;28;20236;-77
2023/04/04 07:43:26;;;;;;;9.53;4.57;;;7.10;99.90;;;;;;5030746;28;20233;-77
2023/04/04 07:46:15;;;;;;;10.57;4.70;;;6.80;99.90;;;;;;5025940;28;20369;-77
2023/04/04 07:49:07;;;;;;;11.53;4.37;;;6.90;99.90;;;;;;5003182;28;20240;-74
2023/04/04 07:51:56;;;;;;;8.23;4.77;;;7.80;99.90;;;;;;5021472;28;20233;-76
2023/04/04 07:54:46;;;;;;;10.63;4.47;;;8.40;99.90;;;;;;5016030;28;20225;-76
2023/04/04 07:57:39;;;;;;;7.30;4.27;;;8.70;99.90;;;;;;5016116;28;20217;-76
2023/04/04 08:00:27;;;;;;;7.60;4.17;;;8.50;99.90;;;;;;5024895;28;20233;-74
2023/04/04 08:03:19;;;;;;;26.87;15.10;;;7.90;99.90;;;;;;5037280;28;20611;-77
2023/04/04 08:06:08;;;;;;;16.60;10.53;;;8.00;99.90;;;;;;5038028;28;20227;-76
2023/04/04 08:08:57;;;;;;;10.03;4.47;;;9.20;99.90;;;;;;5035795;28;20800;-76
2023/04/04 08:11:46;;;;;;;8.03;3.87;;;8.70;99.90;;;;;;5012151;28;20278;-74
2023/04/04 08:14:36;;;;;;;10.37;4.27;;;8.80;99.90;;;;;;5037461;28;20231;-75
2023/04/04 08:17:25;;;;;;;7.22;3.60;;;8.30;99.90;;;;;;5006780;28;20234;-76
2023/04/04 08:20:14;;;;;;;6.50;3.30;;;7.60;99.90;;;;;;5005208;28;20293;-76
2023/04/04 08:23:08;;;;;;;7.53;3.90;;;8.50;99.90;;;;;;5017501;28;20638;-74
2023/04/04 08:25:58;;;;;;;8.73;3.30;;;8.10;99.90;;;;;;5019987;28;20224;-76
2023/04/04 08:28:48;;;;;;;6.50;3.25;;;8.80;99.90;;;;;;5014107;28;20248;-73
2023/04/04 08:31:39;;;;;;;8.07;3.33;;;7.70;99.90;;;;;;5027707;28;20926;-74
2023/04/04 08:34:28;;;;;;;7.50;3.53;;;7.40;99.90;;;;;;5030273;28;20244;-74
2023/04/04 08:37:17;;;;;;;7.93;3.33;;;7.30;99.90;;;;;;5015073;28;20239;-74
2023/04/04 08:40:08;;;;;;;7.07;3.27;;;6.90;99.90;;;;;;5016375;28;20278;-74
2023/04/04 08:42:57;;;;;;;7.17;3.10;;;7.00;99.90;;;;;;5040563;28;20695;-74
2023/04/04 08:45:50;;;;;;;6.93;2.83;;;6.90;99.90;;;;;;5033615;28;20219;-75
2023/04/04 08:48:44;;;;;;;7.03;3.33;;;6.60;99.90;;;;;;5035476;28;20240;-76
2023/04/04 08:51:35;;;;;;;6.37;3.40;;;6.50;99.90;;;;;;5022825;28;20269;-72
2023/04/04 08:54:26;;;;;;;7.67;3.47;;;7.70;99.90;;;;;;5028750;28;20240;-78
2023/04/04 08:57:18;;;;;;;11.67;5.93;;;8.60;99.90;;;;;;5015782;28;20600;-77
2023/04/04 09:00:08;;;;;;;6.37;3.60;;;8.20;99.90;;;;;;5016982;28;20221;-76
2023/04/04 09:03:06;;;;;;;7.23;3.33;;;7.80;99.90;;;;;;5039754;28;20225;-77
2023/04/04 09:05:57;;;;;;;6.30;3.90;;;6.60;99.90;;;;;;5038005;28;20217;-77
2023/04/04 09:08:47;;;;;;;5.40;2.77;;;6.90;99.90;;;;;;5048711;28;20275;-77
2023/04/04 09:11:36;;;;;;;7.57;3.27;;;7.00;99.90;;;;;;5033965;28;20217;-77
2023/04/04 09:14:26;;;;;;;5.17;2.80;;;6.70;99.90;;;;;;5033038;28;20250;-77
2023/04/04 09:17:18;;;;;;;8.13;3.00;;;6.90;99.90;;;;;;5023981;28;20255;-79
2023/04/04 09:20:33;;;;;;;6.27;3.00;;;6.70;99.90;;;;;;5032709;28;20295;-76
2023/04/04 09:23:24;;;;;;;7.90;3.00;;;6.80;99.90;;;;;;5024713;28;20225;-76
2023/04/04 09:26:13;;;;;;;6.47;2.93;;;6.90;99.90;;;;;;5017990;28;20321;-76
2023/04/04 09:29:02;;;;;;;5.03;2.70;;;6.70;99.90;;;;;;5037608;28;20866;-76
2023/04/04 09:31:51;;;;;;;9.53;5.20;;;6.60;99.90;;;;;;5019092;28;20226;-75
2023/04/04 09:34:40;;;;;;;8.03;2.80;;;6.90;99.90;;;;;;5041806;28;20224;-77
2023/04/04 09:37:30;;;;;;;5.80;2.40;;;6.80;99.90;;;;;;5026224;28;20229;-77
2023/04/04 09:40:22;;;;;;;4.60;2.10;;;6.60;99.90;;;;;;5038078;28;20228;-77
2023/04/04 09:43:13;;;;;;;3.93;2.10;;;5.80;99.90;;;;;;5019832;28;20542;-77
2023/04/04 09:46:04;;;;;;;4.97;2.20;;;6.00;99.90;;;;;;5030727;28;20224;-77
2023/04/04 09:48:54;;;;;;;5.60;2.00;;;6.30;99.90;;;;;;5037207;28;20223;-77
2023/04/04 09:51:48;;;;;;;5.37;2.60;;;6.80;99.90;;;;;;5031392;28;20216;-77
2023/04/04 09:54:37;;;;;;;5.47;1.90;;;7.00;99.90;;;;;;5035711;28;20229;-78
2023/04/04 09:57:38;;;;;;;8.03;2.50;;;7.00;99.90;;;;;;5037995;28;20239;-77
2023/04/04 10:00:30;;;;;;;8.23;2.90;;;6.90;99.90;;;;;;5041475;28;20294;-77
2023/04/04 10:03:22;;;;;;;4.27;2.50;;;7.00;99.90;;;;;;5028557;28;21013;-76
2023/04/04 10:06:11;;;;;;;6.00;2.10;;;7.20;99.90;;;;;;5019805;28;20231;-77
2023/04/04 10:09:02;;;;;;;5.43;2.20;;;7.40;99.90;;;;;;5025175;28;20268;-77
2023/04/04 10:12:07;;;;;;;4.53;1.90;;;7.20;99.90;;;;;;5020209;28;20219;-78
2023/04/04 10:14:58;;;;;;;3.93;1.80;;;7.00;99.90;;;;;;5025193;28;20254;-77
2023/04/04 10:17:48;;;;;;;3.50;1.70;;;5.90;99.90;;;;;;5028459;28;20219;-77
2023/04/04 10:20:37;;;;;;;2.93;1.60;;;6.30;99.90;;;;;;5035234;28;20238;-77
2023/04/04 10:23:27;;;;;;;3.77;1.60;;;6.90;99.90;;;;;;5011073;28;20243;-76
2023/04/04 10:26:16;;;;;;;3.57;1.70;;;7.30;99.80;;;;;;5012178;28;20276;-74
2023/04/04 10:29:05;;;;;;;5.37;1.90;;;7.60;99.60;;;;;;5010776;28;20278;-76
2023/04/04 10:32:02;;;;;;;3.27;1.40;;;7.20;98.40;;;;;;5000183;28;20274;-76
2023/04/04 10:34:59;;;;;;;2.20;1.37;;;6.80;97.60;;;;;;4997876;28;20229;-77
2023/04/04 10:37:56;;;;;;;3.80;1.30;;;7.00;98.10;;;;;;4994252;28;20236;-76
2023/04/04 10:40:48;;;;;;;4.73;2.13;;;7.50;98.20;;;;;;5005800;28;20261;-75
2023/04/04 10:43:41;;;;;;;4.43;1.80;;;7.40;97.50;;;;;;5004979;28;21036;-76
2023/04/04 10:46:33;;;;;;;3.00;1.50;;;7.20;98.70;;;;;;4992992;28;20710;-76
2023/04/04 10:49:25;;;;;;;4.43;1.83;;;6.90;98.70;;;;;;5005209;28;20394;-76
2023/04/04 10:52:17;;;;;;;5.43;1.83;;;7.00;99.30;;;;;;5009056;28;20222;-78
2023/04/04 10:55:08;;;;;;;5.10;2.53;;;6.70;99.70;;;;;;5005064;28;20327;-77
2023/04/04 10:57:57;;;;;;;4.47;2.20;;;6.90;99.90;;;;;;5004987;28;20732;-76
2023/04/04 11:00:50;;;;;;;4.37;1.80;;;7.10;99.90;;;;;;5001005;28;20228;-77
2023/04/04 11:04:20;;;;;;;3.13;1.60;;;7.40;99.90;;;;;;4997178;28;20582;-77
2023/04/04 11:07:18;;;;;;;3.80;1.60;;;7.60;99.30;;;;;;5001256;28;20255;-76
2023/04/04 11:10:15;;;;;;;4.17;1.87;;;7.40;99.20;;;;;;4979330;28;20225;-76
2023/04/04 11:13:11;;;;;;;4.77;1.63;;;7.20;99.50;;;;;;4996085;28;20311;-77
2023/04/04 11:16:06;;;;;;;4.63;1.47;;;7.10;99.20;;;;;;4993773;28;20712;-76
2023/04/04 11:19:00;;;;;;;3.07;1.70;;;6.70;99.10;;;;;;4985199;28;20593;-77
2023/04/04 11:21:51;;;;;;;2.67;1.53;;;6.70;99.30;;;;;;5002841;28;20222;-77
2023/04/04 11:24:44;;;;;;;4.77;1.70;;;7.00;99.30;;;;;;5022339;28;20620;-76
2023/04/04 11:27:34;;;;;;;4.83;1.90;;;7.60;99.30;;;;;;5038668;28;20268;-76
2023/04/04 11:30:23;;;;;;;2.77;1.30;;;7.70;99.70;;;;;;5028779;28;20222;-77
2023/04/04 11:33:14;;;;;;;4.27;1.50;;;7.70;98.60;;;;;;5022101;28;20229;-77
2023/04/04 11:36:06;;;;;;;4.70;1.80;;;7.30;98.80;;;;;;5006821;28;20234;-76
2023/04/04 11:38:58;;;;;;;3.37;1.30;;;7.40;99.00;;;;;;5041227;28;20232;-77
2023/04/04 11:41:52;;;;;;;5.50;1.57;;;7.10;98.80;;;;;;5034581;28;20238;-77
2023/04/04 11:45:01;;;;;;;3.70;1.70;;;7.10;99.10;;;;;;5032749;28;20225;-76
2023/04/04 11:47:51;;;;;;;4.23;1.63;;;7.00;99.20;;;;;;5027682;28;20230;-76
2023/04/04 11:50:41;;;;;;;4.20;1.73;;;6.30;99.90;;;;;;5022492;28;20232;-76
2023/04/04 11:53:33;;;;;;;6.17;1.80;;;6.70;99.90;;;;;;5023621;28;20240;-76
2023/04/04 11:56:22;;;;;;;3.87;1.90;;;6.30;99.90;;;;;;5025799;28;20243;-76
2023/04/04 11:59:14;;;;;;;4.33;1.87;;;6.20;99.90;;;;;;5033746;28;20224;-76
2023/04/04 12:02:03;;;;;;;4.67;2.00;;;6.40;99.90;;;;;;5037716;28;20379;-76
2023/04/04 12:04:52;;;;;;;4.50;1.90;;;6.60;99.90;;;;;;5039279;28;20298;-76
2023/04/04 12:08:01;;;;;;;5.33;2.00;;;7.00;99.90;;;;;;5040435;28;20302;-76
2023/04/04 12:10:51;;;;;;;4.73;1.70;;;7.10;99.90;;;;;;5035141;28;20233;-76
2023/04/04 12:13:43;;;;;;;2.60;1.50;;;7.10;99.90;;;;;;5034129;28;20308;-76
2023/04/04 12:16:36;;;;;;;4.40;1.70;;;6.70;99.90;;;;;;5032724;28;20304;-76
2023/04/04 12:19:25;;;;;;;6.40;3.37;;;6.50;99.90;;;;;;5016747;28;20244;-77
2023/04/04 12:22:15;;;;;;;7.37;1.90;;;6.50;99.90;;;;;;5017531;28;20248;-76
2023/04/04 12:25:05;;;;;;;4.80;2.03;;;6.10;99.90;;;;;;5011614;28;20302;-76
2023/04/04 12:27:56;;;;;;;3.73;1.70;;;5.90;99.90;;;;;;5043150;28;20278;-76
2023/04/04 12:30:45;;;;;;;3.87;1.83;;;5.80;99.90;;;;;;5029573;28;20252;-75
2023/04/04 12:33:36;;;;;;;3.70;3.20;;;5.90;99.90;;;;;;5023397;28;20315;-76
2023/04/04 12:36:26;;;;;;;4.83;1.97;;;5.80;99.90;;;;;;5034314;28;20720;-76
2023/04/04 12:39:17;;;;;;;2.77;1.93;;;5.70;99.90;;;;;;5017746;28;20230;-76
2023/04/04 12:42:06;;;;;;;4.30;2.00;;;5.80;99.90;;;;;;5035079;28;20213;-76
2023/04/04 12:44:57;;;;;;;6.30;2.50;;;5.90;99.90;;;;;;5018942;28;20690;-77
2023/04/04 12:47:52;;;;;;;3.80;2.07;;;5.90;99.90;;;;;;5036774;28;20234;-78
2023/04/04 12:50:54;;;;;;;8.17;2.20;;;6.00;99.90;;;;;;5037797;28;20228;-78
2023/04/04 12:53:52;;;;;;;4.50;2.20;;;6.10;99.90;;;;;;5037831;28;20328;-78
2023/04/04 12:56:41;;;;;;;5.33;2.50;;;6.20;99.90;;;;;;5025414;28;20251;-79
2023/04/04 12:59:31;;;;;;;27.40;2.83;;;6.40;99.90;;;;;;5018988;28;20213;-78
2023/04/04 13:02:22;;;;;;;27.20;16.87;;;6.30;99.90;;;;;;5036178;28;20228;-78
2023/04/04 13:05:12;;;;;;;5.40;2.83;;;6.20;99.90;;;;;;5034655;28;20228;-78
2023/04/04 13:08:08;;;;;;;6.47;3.20;;;6.30;99.90;;;;;;5033512;28;20233;-78
2023/04/04 13:11:05;;;;;;;6.10;2.57;;;6.30;99.90;;;;;;5031228;28;20241;-76
2023/04/04 13:14:02;;;;;;;3.90;2.27;;;6.40;99.90;;;;;;5031522;28;20225;-76
2023/04/04 13:17:03;;;;;;;4.07;2.20;;;6.40;99.90;;;;;;5022747;28;20310;-76
2023/04/04 13:19:52;;;;;;;5.47;2.07;;;6.40;99.90;;;;;;5017568;28;20217;-77
2023/04/04 13:22:42;;;;;;;7.37;2.37;;;6.50;99.90;;;;;;5024662;28;20232;-77
2023/04/04 13:25:33;;;;;;;6.63;2.40;;;6.50;99.90;;;;;;5022426;28;20574;-77
2023/04/04 13:28:22;;;;;;;6.93;2.50;;;6.50;99.90;;;;;;5034963;28;20305;-77
2023/04/04 13:31:12;;;;;;;6.57;2.40;;;6.40;99.90;;;;;;5043762;28;20213;-78
2023/04/04 13:34:01;;;;;;;17.77;3.90;;;6.30;99.90;;;;;;5030428;28;20298;-77
2023/04/04 13:36:50;;;;;;;5.10;2.73;;;6.30;99.90;;;;;;5035241;28;20238;-78
2023/04/04 13:39:39;;;;;;;21.60;3.63;;;6.30;99.90;;;;;;5038058;28;20340;-78
2023/04/04 13:42:30;;;;;;;13.53;2.90;;;6.40;99.90;;;;;;5025373;28;20225;-78
2023/04/04 13:45:20;;;;;;;9.20;2.63;;;6.50;99.90;;;;;;5034715;28;20651;-78
2023/04/04 13:48:09;;;;;;;6.10;2.40;;;6.20;99.90;;;;;;5046720;28;20346;-75
2023/04/04 13:50:57;;;;;;;8.20;2.70;;;6.30;99.90;;;;;;5037924;28;20221;-77
2023/04/04 13:53:47;;;;;;;4.63;2.90;;;6.30;99.90;;;;;;5026313;28;20229;-78
2023/04/04 13:56:36;;;;;;;4.80;2.50;;;6.30;99.90;;;;;;5030183;28;20229;-78
2023/04/04 13:59:27;;;;;;;8.30;2.93;;;6.40;99.90;;;;;;5037136;28;20365;-77
2023/04/04 14:02:16;;;;;;;6.17;2.20;;;6.40;99.90;;;;;;5028050;28;20244;-77
2023/04/04 14:05:06;;;;;;;6.87;2.33;;;6.50;99.90;;;;;;5031765;28;20570;-77
2023/04/04 14:07:55;;;;;;;4.63;2.30;;;6.70;99.90;;;;;;5026701;28;20227;-77
2023/04/04 14:10:44;;;;;;;5.97;2.63;;;6.70;99.90;;;;;;5041011;28;20744;-77
2023/04/04 14:13:33;;;;;;;8.13;2.60;;;6.60;99.90;;;;;;5043257;28;20615;-77
2023/04/04 14:16:23;;;;;;;5.70;2.90;;;6.70;99.90;;;;;;5043520;28;20243;-77
2023/04/04 14:19:12;;;;;;;6.33;2.00;;;6.80;99.90;;;;;;5037757;28;20225;-79
2023/04/04 14:22:01;;;;;;;7.45;2.42;;;6.60;99.90;;;;;;5030229;28;20450;-77
2023/04/04 14:24:50;;;;;;;4.27;2.60;;;6.80;99.90;;;;;;5043834;28;20301;-77
2023/04/04 14:27:38;;;;;;;4.70;2.23;;;6.60;99.90;;;;;;5019605;28;21096;-76
2023/04/04 14:30:27;;;;;;;3.67;2.30;;;6.80;99.90;;;;;;5033578;28;20252;-76
2023/04/04 14:33:17;;;;;;;5.17;2.40;;;6.70;99.90;;;;;;5035719;28;20241;-74
2023/04/04 14:36:06;;;;;;;5.53;2.40;;;6.70;99.90;;;;;;5036148;28;20312;-73
2023/04/04 14:38:56;;;;;;;5.20;2.70;;;6.60;99.90;;;;;;5042970;28;20232;-70
2023/04/04 14:41:48;;;;;;;5.10;2.73;;;6.50;99.90;;;;;;5041074;28;21076;-71
2023/04/04 14:44:37;;;;;;;6.00;2.70;;;6.40;99.90;;;;;;5039425;28;20243;-72
2023/04/04 14:47:26;;;;;;;6.50;2.70;;;6.40;99.90;;;;;;5026160;28;20228;-74
2023/04/04 14:50:18;;;;;;;5.67;2.47;;;6.60;99.90;;;;;;5033567;28;20228;-73
2023/04/04 14:53:08;;;;;;;5.67;2.60;;;6.50;99.90;;;;;;5038972;28;20223;-74
2023/04/04 14:55:57;;;;;;;8.00;2.40;;;6.60;99.90;;;;;;5047354;28;20327;-72
2023/04/04 14:58:46;;;;;;;4.30;2.50;;;6.60;99.90;;;;;;5016103;28;20221;-72
2023/04/04 15:01:35;;;;;;;4.60;2.20;;;6.40;99.90;;;;;;5022486;28;20238;-73